Flight Track Log - Related Links

Times and Time Zones

All times are in EDT time to prevent confusion due to time zone crossing. See the SWA3685 flight status page for this flight to view local times or setup timezone preferences in your user account.

Time Position Orientation Groundspeed Altitude Reporting Facility
EDT Latitude Longitude Course Direction KTS MPH feet Rate Location/Type
Fri 09:28:18 AM 33.4333 -111.9833 90° East 337 388 2,600  Level Phoenix TRACON
Fri 09:29:06 AM 33.4333 -111.9500 90° East 184 212 4,100 2,532 Climbing Phoenix TRACON
Fri 09:30:07 AM 33.4333 -111.8667 90° East 239 275 7,200 3,333 Climbing Phoenix TRACON
Fri 09:31:12 AM 33.4758 -111.7878 57° Northeast 291 335 11,100 3,524 Climbing Albuquerque Center
Fri 09:32:13 AM 33.5258 -111.6983 56° Northeast 323 372 14,600 3,492 Climbing Albuquerque Center
Fri 09:33:14 AM 33.5683 -111.5925 64° Northeast 353 406 18,200 3,738 Climbing Albuquerque Center
Fri 09:34:15 AM 33.6194 -111.4531 66° East 383 441 22,200 3,393 Climbing Albuquerque Center
Fri 09:35:16 AM 33.6658 -111.3314 65° Northeast 402 463 25,100 2,656 Climbing Albuquerque Center
Fri 09:36:17 AM 33.7122 -111.2017 67° East 424 488 27,600 2,361 Climbing Albuquerque Center
Fri 09:37:18 AM 33.7597 -111.0647 67° East 444 511 29,900 2,066 Climbing Albuquerque Center
Fri 09:38:19 AM 33.8103 -110.9231 67° East 458 527 31,800 1,869 Climbing Albuquerque Center
Fri 09:39:20 AM 33.8614 -110.7789 67° East 469 540 33,700 2,016 Climbing Albuquerque Center
Fri 09:40:21 AM 33.9131 -110.6314 67° East 476 548 35,900 1,918 Climbing Albuquerque Center
Fri 09:41:22 AM 33.9650 -110.4861 67° East 476 548 37,600 1,574 Climbing Albuquerque Center
Fri 09:42:23 AM 34.0158 -110.3411 67° East 479 551 39,100 1,525 Climbing Albuquerque Center
Fri 09:43:24 AM 34.0769 -110.1628 67° East 482 555 40,700 934 Climbing Albuquerque Center
Fri 09:44:25 AM 34.1294 -110.0078 68° East 479 551 41,000 148 Climbing Albuquerque Center
Fri 09:45:26 AM 34.1786 -109.8672 67° East 478 550 41,000  Level Albuquerque Center
Fri 09:46:27 AM 34.2278 -109.7267 67° East 475 547 41,000  Level Albuquerque Center
Fri 09:47:28 AM 34.2831 -109.5628 68° East 472 543 41,000  Level Albuquerque Center
Fri 09:48:30 AM 34.3311 -109.4233 67° East 472 543 41,000  Level Albuquerque Center
Fri 09:49:31 AM 34.3792 -109.2822 68° East 473 544 41,000  Level Albuquerque Center
Fri 09:50:32 AM 34.4281 -109.1128 71° East 474 545 41,000 -148 Level Albuquerque Center
Fri 09:51:33 AM 34.4478 -108.9578 81° East 483 556 40,700 -934 Descending Albuquerque Center
Fri 09:52:34 AM 34.4711 -108.7794 81° East 483 556 39,100 -1,426 Descending Albuquerque Center
Fri 09:53:35 AM 34.4908 -108.6256 81° East 484 557 37,800 -1,707 Descending Albuquerque Center
Fri 09:54:37 AM 34.5106 -108.4650 81° East 485 558 35,600 -2,585 Descending Albuquerque Center
Fri 09:55:38 AM 34.5389 -108.3067 78° East 484 557 32,500 -2,803 Descending Albuquerque Center
Fri 09:56:39 AM 34.5653 -108.1525 78° East 475 547 29,900 -2,459 Descending Albuquerque Center
Fri 09:57:40 AM 34.5906 -108.0033 78° East 459 528 27,500 -2,311 Descending Albuquerque Center
Fri 09:58:41 AM 34.6139 -107.8608 79° East 441 507 25,200 -2,244 Descending Albuquerque Center
Fri 09:59:43 AM 34.6547 -107.7328 69° East 410 472 22,900 -2,341 Descending Albuquerque Center
Fri 10:00:44 AM 34.7150 -107.5933 62° Northeast 393 452 20,400 -2,296 Descending Albuquerque Center
Fri 10:01:04 AM 34.7275 -107.5592 66° East 381 438 19,800 -1,967 Descending Albuquerque Center
Fri 10:01:45 AM 34.7633 -107.4836 60° Northeast 377 434 18,400 -1,929 Descending Albuquerque Center
Fri 10:02:28 AM 34.7950 -107.4031 64° Northeast 353 406 17,100 -1,742 Descending Albuquerque Center
Fri 10:02:47 AM 34.8078 -107.3783 58° Northeast 358 412 16,600 -1,701 Descending Albuquerque Center
Fri 10:03:35 AM 34.8442 -107.2903 63° Northeast 350 403 15,200 -1,648 Descending Albuquerque Center
Fri 10:04:18 AM 34.8708 -107.2214 65° Northeast 327 376 14,100 -1,541 Descending Albuquerque Center
Fri 10:04:49 AM 34.8914 -107.1769 61° Northeast 327 376 13,300 -1,800 Descending Albuquerque Center
Fri 10:05:18 AM 34.9131 -107.1203 65° Northeast 309 356 12,300 -1,548 Descending Albuquerque Center
Fri 10:05:51 AM 34.9292 -107.0842 61° Northeast 316 364 11,700 -1,574 Descending Albuquerque Center
Fri 10:06:19 AM 34.9528 -107.0275 63° Northeast 304 350 10,700 -1,475 Descending Albuquerque Center
Fri 10:06:52 AM 34.9650 -106.9914 68° East 309 356 10,200 -1,574 Descending Albuquerque Center
Fri 10:07:20 AM 34.9819 -106.9372 69° East 289 333 9,100 -1,452 Descending Albuquerque Center
Fri 10:07:54 AM 34.9933 -106.9008 69° East 300 345 8,700 -904 Descending Albuquerque Center
Fri 10:08:33 AM 35.0164 -106.8275 69° East 277 319 8,000 -689 Descending Albuquerque Center
Fri 10:08:55 AM 35.0239 -106.8011 71° East 281 323 8,000 -125 Level Albuquerque Center
Fri 10:09:21 AM 35.0342 -106.7711 67° East 231 266 7,900 -581 Descending Albuquerque Center
Fri 10:09:57 AM 35.0431 -106.7347 73° East 234 269 7,400 -1,164 Descending Albuquerque Center
Fri 10:10:28 AM 35.0436 -106.7011 89° East 163 188 6,600 -1,082 Descending Albuquerque Center
Fri 10:10:58 AM 35.0442 -106.6794 88° East 188 216 6,300 -667 Descending Albuquerque Center
Fri 10:11:22 AM 35.0447 -106.6594 88° East 129 148 6,000 -677 Descending Albuquerque Center
Fri 10:12:00 AM 35.0442 -106.6325 91° East 159 183 5,600 -632 Descending Albuquerque Center
Fri 10:13:00 AM 35.0402 -106.6092 84° East  Level Estimated
Fri 10:20:00 AM 35.0402 -106.6092 84° East  Level Estimated

Login

Don't have an account? Register now (free) for customized features, flight alerts, and more!